sensor_id;sensor_type;location;lat;lon;timestamp;pressure;altitude;pressure_sealevel;temperature;humidity
21826;BME280;11075;47.944;11.776;2023-05-01T00:00:55;94617.34;;;3.67;40.34
21826;BME280;11075;47.944;11.776;2023-05-01T00:03:23;94598.00;;;2.02;43.83
21826;BME280;11075;47.944;11.776;2023-05-01T00:05:51;94613.31;;;2.10;44.37
21826;BME280;11075;47.944;11.776;2023-05-01T00:08:24;94614.06;;;2.16;43.94
21826;BME280;11075;47.944;11.776;2023-05-01T00:10:51;94605.88;;;2.31;43.71
21826;BME280;11075;47.944;11.776;2023-05-01T00:13:18;94600.09;;;2.05;44.55
21826;BME280;11075;47.944;11.776;2023-05-01T00:15:47;94593.59;;;2.35;43.84
21826;BME280;11075;47.944;11.776;2023-05-01T00:18:14;94603.03;;;2.65;43.14
21826;BME280;11075;47.944;11.776;2023-05-01T00:20:42;94599.25;;;2.10;44.02
21826;BME280;11075;47.944;11.776;2023-05-01T00:23:08;94587.38;;;2.02;43.93
21826;BME280;11075;47.944;11.776;2023-05-01T00:25:35;94586.56;;;1.83;44.31
21826;BME280;11075;47.944;11.776;2023-05-01T00:28:02;94592.78;;;1.44;45.66
21826;BME280;11075;47.944;11.776;2023-05-01T00:30:31;94578.94;;;1.47;45.53
21826;BME280;11075;47.944;11.776;2023-05-01T00:32:59;94586.78;;;1.05;46.53
21826;BME280;11075;47.944;11.776;2023-05-01T00:35:26;94578.56;;;1.83;45.02
21826;BME280;11075;47.944;11.776;2023-05-01T00:37:53;94580.00;;;1.23;46.11
21826;BME280;11075;47.944;11.776;2023-05-01T00:40:20;94578.88;;;1.29;45.82
21826;BME280;11075;47.944;11.776;2023-05-01T00:42:48;94579.72;;;2.57;42.90
21826;BME280;11075;47.944;11.776;2023-05-01T00:45:15;94573.41;;;2.72;42.39
21826;BME280;11075;47.944;11.776;2023-05-01T00:47:42;94576.47;;;1.56;44.67
21826;BME280;11075;47.944;11.776;2023-05-01T00:50:08;94570.28;;;1.37;45.14
21826;BME280;11075;47.944;11.776;2023-05-01T00:52:37;94562.88;;;1.63;44.52
21826;BME280;11075;47.944;11.776;2023-05-01T00:55:05;94575.69;;;1.56;44.37
21826;BME280;11075;47.944;11.776;2023-05-01T00:57:32;94567.63;;;2.08;43.45
21826;BME280;11075;47.944;11.776;2023-05-01T00:59:59;94575.13;;;1.82;43.62
21826;BME280;11075;47.944;11.776;2023-05-01T01:02:26;94562.75;;;0.62;46.27
21826;BME280;11075;47.944;11.776;2023-05-01T01:04:53;94577.75;;;2.06;43.49
21826;BME280;11075;47.944;11.776;2023-05-01T01:07:36;94571.44;;;2.40;42.57
21826;BME280;11075;47.944;11.776;2023-05-01T01:15:34;94564.16;;;2.83;41.26
21826;BME280;11075;47.944;11.776;2023-05-01T01:20:54;94548.75;;;2.10;42.19
21826;BME280;11075;47.944;11.776;2023-05-01T01:23:57;94556.94;;;2.70;41.05
21826;BME280;11075;47.944;11.776;2023-05-01T01:29:47;94542.69;;;2.42;41.34
21826;BME280;11075;47.944;11.776;2023-05-01T01:35:19;94548.28;;;3.10;39.81
21826;BME280;11075;47.944;11.776;2023-05-01T01:38:00;94539.44;;;2.64;40.74
21826;BME280;11075;47.944;11.776;2023-05-01T01:40:34;94510.88;;;1.33;43.21
21826;BME280;11075;47.944;11.776;2023-05-01T01:43:05;94538.56;;;1.74;42.49
21826;BME280;11075;47.944;11.776;2023-05-01T01:45:37;94533.16;;;2.03;42.24
21826;BME280;11075;47.944;11.776;2023-05-01T01:48:09;94538.84;;;2.86;40.26
21826;BME280;11075;47.944;11.776;2023-05-01T01:50:38;94531.00;;;2.94;40.09
21826;BME280;11075;47.944;11.776;2023-05-01T01:53:08;94537.16;;;2.38;41.33
21826;BME280;11075;47.944;11.776;2023-05-01T01:55:39;94538.03;;;2.34;41.27
21826;BME280;11075;47.944;11.776;2023-05-01T01:58:08;94516.31;;;1.89;42.02
21826;BME280;11075;47.944;11.776;2023-05-01T02:00:38;94517.78;;;2.00;41.49
21826;BME280;11075;47.944;11.776;2023-05-01T02:03:09;94520.28;;;1.92;41.21
21826;BME280;11075;47.944;11.776;2023-05-01T02:05:38;94522.63;;;1.74;41.30
21826;BME280;11075;47.944;11.776;2023-05-01T02:08:07;94531.91;;;2.52;40.08
21826;BME280;11075;47.944;11.776;2023-05-01T02:10:36;94524.53;;;2.30;40.73
21826;BME280;11075;47.944;11.776;2023-05-01T02:13:04;94510.81;;;2.04;41.18
21826;BME280;11075;47.944;11.776;2023-05-01T02:15:33;94511.44;;;1.96;41.17
21826;BME280;11075;47.944;11.776;2023-05-01T02:18:03;94516.19;;;1.99;40.82
21826;BME280;11075;47.944;11.776;2023-05-01T02:20:31;94517.34;;;2.12;40.77
21826;BME280;11075;47.944;11.776;2023-05-01T02:22:59;94510.84;;;0.85;43.77
21826;BME280;11075;47.944;11.776;2023-05-01T02:25:27;94518.50;;;1.39;42.67
21826;BME280;11075;47.944;11.776;2023-05-01T02:28:08;94526.00;;;2.55;40.18
21826;BME280;11075;47.944;11.776;2023-05-01T02:30:37;94513.66;;;2.45;40.20
21826;BME280;11075;47.944;11.776;2023-05-01T02:33:07;94509.72;;;2.24;40.48
21826;BME280;11075;47.944;11.776;2023-05-01T02:35:41;94503.69;;;2.00;41.02
21826;BME280;11075;47.944;11.776;2023-05-01T02:38:17;94499.72;;;1.55;41.71
21826;BME280;11075;47.944;11.776;2023-05-01T02:40:49;94502.34;;;2.54;40.37
21826;BME280;11075;47.944;11.776;2023-05-01T02:43:20;94496.63;;;2.46;39.58
21826;BME280;11075;47.944;11.776;2023-05-01T02:45:50;94485.94;;;1.95;41.04
21826;BME280;11075;47.944;11.776;2023-05-01T02:48:21;94478.16;;;0.90;43.30
21826;BME280;11075;47.944;11.776;2023-05-01T02:50:49;94492.06;;;0.76;43.58
21826;BME280;11075;47.944;11.776;2023-05-01T02:53:17;94501.16;;;1.47;41.36
21826;BME280;11075;47.944;11.776;2023-05-01T02:55:51;94489.75;;;1.46;41.33
21826;BME280;11075;47.944;11.776;2023-05-01T02:58:18;94487.09;;;0.70;43.52
21826;BME280;11075;47.944;11.776;2023-05-01T03:00:48;94479.41;;;0.97;42.49
21826;BME280;11075;47.944;11.776;2023-05-01T03:03:17;94485.44;;;1.50;41.43
21826;BME280;11075;47.944;11.776;2023-05-01T03:05:44;94478.63;;;1.44;41.30
21826;BME280;11075;47.944;11.776;2023-05-01T03:08:11;94476.69;;;0.78;42.29
21826;BME280;11075;47.944;11.776;2023-05-01T03:10:39;94477.72;;;1.30;41.70
21826;BME280;11075;47.944;11.776;2023-05-01T03:13:10;94475.69;;;0.69;42.61
21826;BME280;11075;47.944;11.776;2023-05-01T03:15:37;94478.97;;;-0.17;44.24
21826;BME280;11075;47.944;11.776;2023-05-01T03:18:04;94486.41;;;0.59;43.45
21826;BME280;11075;47.944;11.776;2023-05-01T03:20:32;94479.34;;;-0.34;45.16
21826;BME280;11075;47.944;11.776;2023-05-01T03:23:00;94479.78;;;-0.22;44.81
21826;BME280;11075;47.944;11.776;2023-05-01T03:25:28;94486.34;;;-0.09;45.28
21826;BME280;11075;47.944;11.776;2023-05-01T03:27:54;94486.03;;;1.24;41.94
21826;BME280;11075;47.944;11.776;2023-05-01T03:30:22;94484.22;;;1.19;41.56
21826;BME280;11075;47.944;11.776;2023-05-01T03:32:49;94487.50;;;1.11;41.32
21826;BME280;11075;47.944;11.776;2023-05-01T03:35:24;94483.31;;;0.47;42.89
21826;BME280;11075;47.944;11.776;2023-05-01T03:37:51;94469.06;;;0.38;43.42
21826;BME280;11075;47.944;11.776;2023-05-01T03:40:37;94474.06;;;1.26;41.61
21826;BME280;11075;47.944;11.776;2023-05-01T03:43:23;94475.41;;;1.00;42.07
21826;BME280;11075;47.944;11.776;2023-05-01T03:45:51;94476.91;;;0.53;42.81
21826;BME280;11075;47.944;11.776;2023-05-01T03:48:19;94471.97;;;0.36;43.65
21826;BME280;11075;47.944;11.776;2023-05-01T03:50:46;94472.88;;;0.21;43.89
21826;BME280;11075;47.944;11.776;2023-05-01T03:53:13;94482.06;;;1.21;41.69
21826;BME280;11075;47.944;11.776;2023-05-01T03:55:41;94475.84;;;1.31;41.02
21826;BME280;11075;47.944;11.776;2023-05-01T03:58:09;94460.47;;;-0.77;45.58
21826;BME280;11075;47.944;11.776;2023-05-01T04:00:37;94472.06;;;0.60;42.72
21826;BME280;11075;47.944;11.776;2023-05-01T04:03:04;94455.88;;;0.62;42.81
21826;BME280;11075;47.944;11.776;2023-05-01T04:05:34;94471.75;;;1.19;41.81
21826;BME280;11075;47.944;11.776;2023-05-01T04:08:02;94466.03;;;1.31;41.46
21826;BME280;11075;47.944;11.776;2023-05-01T04:10:30;94450.63;;;0.22;43.32
21826;BME280;11075;47.944;11.776;2023-05-01T04:13:03;94457.66;;;-1.21;46.80
21826;BME280;11075;47.944;11.776;2023-05-01T04:15:30;94470.94;;;-1.51;48.31
21826;BME280;11075;47.944;11.776;2023-05-01T04:17:58;94465.06;;;0.40;43.89
21826;BME280;11075;47.944;11.776;2023-05-01T04:20:25;94459.38;;;0.57;43.57
21826;BME280;11075;47.944;11.776;2023-05-01T04:22:53;94456.94;;;0.27;44.16
21826;BME280;11075;47.944;11.776;2023-05-01T04:25:20;94438.66;;;-0.53;45.62
21826;BME280;11075;47.944;11.776;2023-05-01T04:27:49;94471.66;;;-1.05;47.88
21826;BME280;11075;47.944;11.776;2023-05-01T04:30:16;94476.25;;;1.19;42.55
21826;BME280;11075;47.944;11.776;2023-05-01T04:32:43;94463.69;;;1.48;41.89
21826;BME280;11075;47.944;11.776;2023-05-01T04:35:10;94472.59;;;2.00;40.98
21826;BME280;11075;47.944;11.776;2023-05-01T04:37:41;94456.13;;;-0.08;45.05
21826;BME280;11075;47.944;11.776;2023-05-01T04:40:08;94472.06;;;0.26;45.17
21826;BME280;11075;47.944;11.776;2023-05-01T04:42:38;94468.53;;;1.23;43.05
21826;BME280;11075;47.944;11.776;2023-05-01T04:45:09;94471.06;;;2.13;41.24
21826;BME280;11075;47.944;11.776;2023-05-01T04:47:36;94469.59;;;2.39;40.81
21826;BME280;11075;47.944;11.776;2023-05-01T04:50:04;94451.88;;;2.35;40.81
21826;BME280;11075;47.944;11.776;2023-05-01T04:52:31;94444.56;;;2.27;41.21
21826;BME280;11075;47.944;11.776;2023-05-01T04:55:00;94455.25;;;1.23;43.54
21826;BME280;11075;47.944;11.776;2023-05-01T04:57:29;94456.53;;;1.01;44.01
21826;BME280;11075;47.944;11.776;2023-05-01T04:59:56;94466.41;;;2.89;40.54
21826;BME280;11075;47.944;11.776;2023-05-01T05:02:24;94452.78;;;2.44;41.83
21826;BME280;11075;47.944;11.776;2023-05-01T05:04:52;94458.78;;;1.61;43.89
21826;BME280;11075;47.944;11.776;2023-05-01T05:07:20;94455.63;;;1.59;44.14
21826;BME280;11075;47.944;11.776;2023-05-01T05:10:16;94466.44;;;2.37;43.27
21826;BME280;11075;47.944;11.776;2023-05-01T05:12:50;94458.59;;;1.95;43.93
21826;BME280;11075;47.944;11.776;2023-05-01T05:15:17;94449.88;;;0.51;46.28
21826;BME280;11075;47.944;11.776;2023-05-01T05:17:44;94467.50;;;2.88;42.56
21826;BME280;11075;47.944;11.776;2023-05-01T05:20:11;94476.19;;;2.93;43.32
21826;BME280;11075;47.944;11.776;2023-05-01T05:22:38;94462.50;;;3.14;42.14
21826;BME280;11075;47.944;11.776;2023-05-01T05:25:17;94467.44;;;3.20;41.88
21826;BME280;11075;47.944;11.776;2023-05-01T05:27:44;94461.59;;;3.46;41.60
21826;BME280;11075;47.944;11.776;2023-05-01T05:30:11;94459.22;;;2.24;44.24
21826;BME280;11075;47.944;11.776;2023-05-01T05:32:38;94471.63;;;2.80;43.54
21826;BME280;11075;47.944;11.776;2023-05-01T05:35:05;94461.69;;;2.86;43.14
21826;BME280;11075;47.944;11.776;2023-05-01T05:37:32;94467.53;;;3.56;41.92
21826;BME280;11075;47.944;11.776;2023-05-01T05:40:00;94468.22;;;3.48;42.86
21826;BME280;11075;47.944;11.776;2023-05-01T05:42:30;94461.50;;;3.51;42.23
21826;BME280;11075;47.944;11.776;2023-05-01T05:45:03;94466.16;;;3.31;42.58
21826;BME280;11075;47.944;11.776;2023-05-01T05:47:30;94471.38;;;3.36;42.86
21826;BME280;11075;47.944;11.776;2023-05-01T05:49:57;94471.53;;;4.76;40.06
21826;BME280;11075;47.944;11.776;2023-05-01T05:52:25;94460.41;;;4.37;40.85
21826;BME280;11075;47.944;11.776;2023-05-01T05:54:52;94456.34;;;5.16;40.17
21826;BME280;11075;47.944;11.776;2023-05-01T05:57:19;94478.75;;;6.03;39.18
21826;BME280;11075;47.944;11.776;2023-05-01T05:59:48;94472.94;;;6.00;38.31
21826;BME280;11075;47.944;11.776;2023-05-01T06:02:20;94473.44;;;6.46;39.01
21826;BME280;11075;47.944;11.776;2023-05-01T06:04:48;94479.03;;;6.96;38.06
21826;BME280;11075;47.944;11.776;2023-05-01T06:07:17;94478.34;;;7.16;37.28
21826;BME280;11075;47.944;11.776;2023-05-01T06:09:44;94476.25;;;6.32;37.81
21826;BME280;11075;47.944;11.776;2023-05-01T06:12:11;94451.84;;;6.33;39.15
21826;BME280;11075;47.944;11.776;2023-05-01T06:14:38;94477.84;;;6.50;38.02
21826;BME280;11075;47.944;11.776;2023-05-01T06:17:07;94477.78;;;5.81;37.85
21826;BME280;11075;47.944;11.776;2023-05-01T06:19:34;94495.41;;;7.03;36.47
21826;BME280;11075;47.944;11.776;2023-05-01T06:22:06;94448.06;;;5.83;38.89
21826;BME280;11075;47.944;11.776;2023-05-01T06:24:38;94480.78;;;6.92;36.62
21826;BME280;11075;47.944;11.776;2023-05-01T06:27:07;94476.09;;;7.36;36.64
21826;BME280;11075;47.944;11.776;2023-05-01T06:29:34;94447.78;;;6.19;38.81
21826;BME280;11075;47.944;11.776;2023-05-01T06:32:02;94437.22;;;6.14;39.35
21826;BME280;11075;47.944;11.776;2023-05-01T06:34:30;94464.06;;;5.57;39.13
21826;BME280;11075;47.944;11.776;2023-05-01T06:36:58;94481.84;;;7.08;37.82
21826;BME280;11075;47.944;11.776;2023-05-01T06:39:25;94481.59;;;7.39;37.19
21826;BME280;11075;47.944;11.776;2023-05-01T06:41:52;94473.88;;;6.74;37.91
21826;BME280;11075;47.944;11.776;2023-05-01T06:44:29;94480.41;;;7.87;36.38
21826;BME280;11075;47.944;11.776;2023-05-01T06:47:00;94466.66;;;7.68;37.63
21826;BME280;11075;47.944;11.776;2023-05-01T06:49:27;94468.09;;;7.27;37.54
21826;BME280;11075;47.944;11.776;2023-05-01T06:51:54;94452.66;;;7.24;38.29
21826;BME280;11075;47.944;11.776;2023-05-01T06:54:21;94476.09;;;7.95;36.53
21826;BME280;11075;47.944;11.776;2023-05-01T06:56:48;94455.50;;;5.07;42.38
21826;BME280;11075;47.944;11.776;2023-05-01T06:59:15;94469.78;;;5.98;40.84
21826;BME280;11075;47.944;11.776;2023-05-01T07:01:42;94488.28;;;8.75;36.04
21826;BME280;11075;47.944;11.776;2023-05-01T07:04:09;94452.81;;;7.86;38.47
21826;BME280;11075;47.944;11.776;2023-05-01T07:06:36;94463.44;;;7.45;39.32
21826;BME280;11075;47.944;11.776;2023-05-01T07:09:03;94485.50;;;8.72;37.94
21826;BME280;11075;47.944;11.776;2023-05-01T07:11:31;94468.66;;;8.00;38.26
21826;BME280;11075;47.944;11.776;2023-05-01T07:13:59;94485.97;;;8.32;37.54
21826;BME280;11075;47.944;11.776;2023-05-01T07:16:27;94469.75;;;8.08;37.88
21826;BME280;11075;47.944;11.776;2023-05-01T07:18:54;94479.41;;;9.29;36.46
21826;BME280;11075;47.944;11.776;2023-05-01T07:21:21;94468.25;;;8.19;37.16
21826;BME280;11075;47.944;11.776;2023-05-01T07:23:47;94440.28;;;7.70;38.09
21826;BME280;11075;47.944;11.776;2023-05-01T07:26:14;94465.31;;;7.53;38.80
21826;BME280;11075;47.944;11.776;2023-05-01T07:28:41;94465.41;;;8.57;37.11
21826;BME280;11075;47.944;11.776;2023-05-01T07:31:08;94463.53;;;8.37;37.57
21826;BME280;11075;47.944;11.776;2023-05-01T07:33:35;94457.56;;;7.81;38.27
21826;BME280;11075;47.944;11.776;2023-05-01T07:36:03;94445.09;;;7.85;38.90
21826;BME280;11075;47.944;11.776;2023-05-01T07:38:30;94466.06;;;8.12;38.18
21826;BME280;11075;47.944;11.776;2023-05-01T07:40:57;94465.41;;;7.18;39.57
21826;BME280;11075;47.944;11.776;2023-05-01T07:43:24;94474.56;;;7.17;40.21
21826;BME280;11075;47.944;11.776;2023-05-01T07:45:59;94474.50;;;6.79;41.13
21826;BME280;11075;47.944;11.776;2023-05-01T07:48:27;94467.13;;;5.98;42.60
21826;BME280;11075;47.944;11.776;2023-05-01T07:50:54;94483.16;;;8.08;37.98
21826;BME280;11075;47.944;11.776;2023-05-01T07:53:22;94477.22;;;6.62;41.89
21826;BME280;11075;47.944;11.776;2023-05-01T07:55:49;94490.53;;;7.52;40.18
21826;BME280;11075;47.944;11.776;2023-05-01T07:58:16;94497.00;;;9.50;36.47
21826;BME280;11075;47.944;11.776;2023-05-01T08:00:43;94478.53;;;7.58;40.19
21826;BME280;11075;47.944;11.776;2023-05-01T08:03:11;94480.53;;;8.41;38.42
21826;BME280;11075;47.944;11.776;2023-05-01T08:05:40;94478.59;;;8.00;38.99
21826;BME280;11075;47.944;11.776;2023-05-01T08:08:07;94477.06;;;7.31;41.10
21826;BME280;11075;47.944;11.776;2023-05-01T08:10:35;94479.34;;;7.79;38.77
21826;BME280;11075;47.944;11.776;2023-05-01T08:13:02;94496.47;;;9.00;36.95
21826;BME280;11075;47.944;11.776;2023-05-01T08:15:29;94475.09;;;7.02;39.65
21826;BME280;11075;47.944;11.776;2023-05-01T08:17:56;94484.13;;;6.80;41.94
21826;BME280;11075;47.944;11.776;2023-05-01T08:20:23;94487.41;;;8.30;39.19
21826;BME280;11075;47.944;11.776;2023-05-01T08:22:50;94493.56;;;7.42;39.87
21826;BME280;11075;47.944;11.776;2023-05-01T08:25:17;94502.72;;;8.71;38.10
21826;BME280;11075;47.944;11.776;2023-05-01T08:27:44;94498.34;;;9.32;37.40
21826;BME280;11075;47.944;11.776;2023-05-01T08:30:11;94471.50;;;7.45;40.53
21826;BME280;11075;47.944;11.776;2023-05-01T08:32:39;94492.19;;;7.36;40.62
21826;BME280;11075;47.944;11.776;2023-05-01T08:35:06;94498.88;;;7.59;40.46
21826;BME280;11075;47.944;11.776;2023-05-01T08:37:33;94496.84;;;8.15;38.92
21826;BME280;11075;47.944;11.776;2023-05-01T08:40:01;94499.31;;;8.62;38.22
21826;BME280;11075;47.944;11.776;2023-05-01T08:42:34;94498.94;;;10.63;35.92
21826;BME280;11075;47.944;11.776;2023-05-01T08:45:06;94496.78;;;8.44;39.20
21826;BME280;11075;47.944;11.776;2023-05-01T08:47:38;94500.03;;;9.49;37.42
21826;BME280;11075;47.944;11.776;2023-05-01T08:50:09;94503.09;;;10.61;35.47
21826;BME280;11075;47.944;11.776;2023-05-01T08:52:39;94486.00;;;9.31;37.77
21826;BME280;11075;47.944;11.776;2023-05-01T08:55:12;94499.84;;;8.55;37.84
21826;BME280;11075;47.944;11.776;2023-05-01T08:57:45;94492.97;;;8.87;38.77
21826;BME280;11075;47.944;11.776;2023-05-01T09:00:17;94504.03;;;8.85;38.04
21826;BME280;11075;47.944;11.776;2023-05-01T09:02:46;94506.41;;;9.32;37.74
21826;BME280;11075;47.944;11.776;2023-05-01T09:05:18;94498.88;;;8.18;39.39
21826;BME280;11075;47.944;11.776;2023-05-01T09:07:46;94509.28;;;8.19;39.12
21826;BME280;11075;47.944;11.776;2023-05-01T09:10:17;94507.13;;;7.45;41.02
21826;BME280;11075;47.944;11.776;2023-05-01T09:12:48;94507.34;;;7.14;40.97
21826;BME280;11075;47.944;11.776;2023-05-01T09:15:15;94524.66;;;8.73;38.83
21826;BME280;11075;47.944;11.776;2023-05-01T09:17:43;94514.91;;;8.47;38.30
21826;BME280;11075;47.944;11.776;2023-05-01T09:20:10;94518.16;;;9.40;37.59
21826;BME280;11075;47.944;11.776;2023-05-01T09:22:38;94524.44;;;9.44;37.41
21826;BME280;11075;47.944;11.776;2023-05-01T09:25:05;94520.81;;;8.82;38.78
21826;BME280;11075;47.944;11.776;2023-05-01T09:27:38;94515.97;;;8.34;38.69
21826;BME280;11075;47.944;11.776;2023-05-01T09:30:05;94528.13;;;8.11;40.27
21826;BME280;11075;47.944;11.776;2023-05-01T09:32:33;94515.91;;;8.84;38.26
21826;BME280;11075;47.944;11.776;2023-05-01T09:35:13;94526.53;;;9.83;37.27
21826;BME280;11075;47.944;11.776;2023-05-01T09:37:40;94507.31;;;8.70;38.56
21826;BME280;11075;47.944;11.776;2023-05-01T09:40:09;94528.22;;;9.18;38.26
21826;BME280;11075;47.944;11.776;2023-05-01T09:42:41;94516.81;;;9.34;38.13
21826;BME280;11075;47.944;11.776;2023-05-01T09:45:14;94532.84;;;9.42;37.70
21826;BME280;11075;47.944;11.776;2023-05-01T09:47:42;94510.34;;;8.48;39.57
21826;BME280;11075;47.944;11.776;2023-05-01T09:50:29;94521.00;;;8.15;39.54
21826;BME280;11075;47.944;11.776;2023-05-01T09:52:56;94519.31;;;8.31;39.35
21826;BME280;11075;47.944;11.776;2023-05-01T09:55:23;94531.81;;;8.48;39.39
21826;BME280;11075;47.944;11.776;2023-05-01T09:57:52;94526.19;;;8.62;39.06
21826;BME280;11075;47.944;11.776;2023-05-01T10:00:19;94518.31;;;8.77;39.34
21826;BME280;11075;47.944;11.776;2023-05-01T10:02:49;94516.63;;;7.34;41.47
21826;BME280;11075;47.944;11.776;2023-05-01T10:05:18;94521.69;;;9.07;38.48
21826;BME280;11075;47.944;11.776;2023-05-01T10:10:22;94524.34;;;9.52;37.98
21826;BME280;11075;47.944;11.776;2023-05-01T10:12:49;94526.47;;;9.02;39.99
21826;BME280;11075;47.944;11.776;2023-05-01T10:15:16;94524.19;;;8.71;39.14
21826;BME280;11075;47.944;11.776;2023-05-01T10:17:52;94509.88;;;8.67;39.80
21826;BME280;11075;47.944;11.776;2023-05-01T10:20:20;94529.19;;;10.44;37.37
21826;BME280;11075;47.944;11.776;2023-05-01T10:22:47;94513.72;;;8.78;38.84
21826;BME280;11075;47.944;11.776;2023-05-01T10:25:16;94527.88;;;8.87;39.65
21826;BME280;11075;47.944;11.776;2023-05-01T10:27:43;94517.75;;;7.71;39.79
21826;BME280;11075;47.944;11.776;2023-05-01T10:30:11;94534.19;;;9.36;38.64
21826;BME280;11075;47.944;11.776;2023-05-01T10:32:40;94534.59;;;9.71;37.63
21826;BME280;11075;47.944;11.776;2023-05-01T10:35:11;94525.97;;;8.87;39.23
21826;BME280;11075;47.944;11.776;2023-05-01T10:37:47;94529.94;;;9.47;38.97
21826;BME280;11075;47.944;11.776;2023-05-01T10:43:12;94516.25;;;11.18;37.71
21826;BME280;11075;47.944;11.776;2023-05-01T10:45:39;94533.22;;;11.19;35.80
21826;BME280;11075;47.944;11.776;2023-05-01T10:48:06;94529.44;;;11.07;36.07
21826;BME280;11075;47.944;11.776;2023-05-01T10:50:33;94516.38;;;10.54;38.40
21826;BME280;11075;47.944;11.776;2023-05-01T10:55:41;94518.00;;;10.30;36.81
21826;BME280;11075;47.944;11.776;2023-05-01T11:01:31;94500.34;;;11.29;36.56
21826;BME280;11075;47.944;11.776;2023-05-01T11:04:01;94522.84;;;12.47;34.30
21826;BME280;11075;47.944;11.776;2023-05-01T11:06:30;94488.84;;;10.08;37.20
21826;BME280;11075;47.944;11.776;2023-05-01T11:08:58;94499.91;;;10.71;35.47
21826;BME280;11075;47.944;11.776;2023-05-01T11:21:47;94498.06;;;10.87;35.73
21826;BME280;11075;47.944;11.776;2023-05-01T11:24:16;94501.41;;;9.92;38.20
21826;BME280;11075;47.944;11.776;2023-05-01T11:26:44;94482.03;;;9.62;38.35
21826;BME280;11075;47.944;11.776;2023-05-01T11:29:11;94471.78;;;10.04;36.87
21826;BME280;11075;47.944;11.776;2023-05-01T11:31:38;94502.56;;;10.83;35.46
21826;BME280;11075;47.944;11.776;2023-05-01T11:34:05;94491.94;;;10.74;35.70
21826;BME280;11075;47.944;11.776;2023-05-01T11:36:50;94497.38;;;11.18;35.48
21826;BME280;11075;47.944;11.776;2023-05-01T11:39:18;94506.19;;;11.94;35.11
21826;BME280;11075;47.944;11.776;2023-05-01T11:41:45;94493.66;;;11.54;35.65
21826;BME280;11075;47.944;11.776;2023-05-01T11:44:17;94499.25;;;11.77;34.27
21826;BME280;11075;47.944;11.776;2023-05-01T11:46:44;94484.19;;;10.45;37.99
21826;BME280;11075;47.944;11.776;2023-05-01T11:49:11;94496.78;;;10.29;37.15
21826;BME280;11075;47.944;11.776;2023-05-01T11:51:38;94480.47;;;10.50;37.35
21826;BME280;11075;47.944;11.776;2023-05-01T11:54:07;94496.25;;;11.19;36.37
21826;BME280;11075;47.944;11.776;2023-05-01T11:56:41;94492.66;;;10.87;36.18
21826;BME280;11075;47.944;11.776;2023-05-01T11:59:10;94488.16;;;10.63;36.75
21826;BME280;11075;47.944;11.776;2023-05-01T12:01:39;94488.78;;;10.44;37.30
21826;BME280;11075;47.944;11.776;2023-05-01T12:04:07;94477.84;;;9.52;38.41
21826;BME280;11075;47.944;11.776;2023-05-01T12:06:44;94490.31;;;10.58;36.39
21826;BME280;11075;47.944;11.776;2023-05-01T12:09:24;94490.00;;;9.70;37.59
21826;BME280;11075;47.944;11.776;2023-05-01T12:11:53;94499.13;;;10.70;36.33
21826;BME280;11075;47.944;11.776;2023-05-01T12:14:20;94470.00;;;9.47;38.43
21826;BME280;11075;47.944;11.776;2023-05-01T12:16:48;94480.41;;;9.36;39.04
21826;BME280;11075;47.944;11.776;2023-05-01T12:19:15;94495.59;;;9.65;37.70
21826;BME280;11075;47.944;11.776;2023-05-01T12:21:43;94492.63;;;8.88;39.20
21826;BME280;11075;47.944;11.776;2023-05-01T12:24:14;94498.66;;;9.31;40.19
21826;BME280;11075;47.944;11.776;2023-05-01T12:26:43;94486.34;;;8.84;39.51
21826;BME280;11075;47.944;11.776;2023-05-01T12:29:11;94496.53;;;9.36;38.98
21826;BME280;11075;47.944;11.776;2023-05-01T12:31:46;94502.97;;;8.78;38.53
21826;BME280;11075;47.944;11.776;2023-05-01T12:34:14;94506.56;;;9.84;37.72
21826;BME280;11075;47.944;11.776;2023-05-01T12:36:40;94491.72;;;9.30;38.51
21826;BME280;11075;47.944;11.776;2023-05-01T12:39:10;94506.56;;;9.72;37.66
21826;BME280;11075;47.944;11.776;2023-05-01T12:41:40;94500.25;;;9.44;38.25
21826;BME280;11075;47.944;11.776;2023-05-01T12:44:28;94507.91;;;9.66;38.02
21826;BME280;11075;47.944;11.776;2023-05-01T12:47:04;94511.56;;;9.49;37.91
21826;BME280;11075;47.944;11.776;2023-05-01T12:49:34;94510.94;;;9.89;37.10
21826;BME280;11075;47.944;11.776;2023-05-01T12:52:04;94513.72;;;11.09;36.13
21826;BME280;11075;47.944;11.776;2023-05-01T12:54:33;94489.50;;;10.05;37.25
21826;BME280;11075;47.944;11.776;2023-05-01T12:57:07;94514.63;;;10.09;36.16
21826;BME280;11075;47.944;11.776;2023-05-01T12:59:35;94501.38;;;9.43;38.13
21826;BME280;11075;47.944;11.776;2023-05-01T13:02:04;94506.34;;;11.22;36.16
21826;BME280;11075;47.944;11.776;2023-05-01T13:04:32;94481.69;;;10.80;37.25
21826;BME280;11075;47.944;11.776;2023-05-01T13:07:00;94494.63;;;10.74;37.22
21826;BME280;11075;47.944;11.776;2023-05-01T13:09:28;94478.16;;;10.36;38.90
21826;BME280;11075;47.944;11.776;2023-05-01T13:12:03;94491.19;;;8.91;39.18
21826;BME280;11075;47.944;11.776;2023-05-01T13:14:35;94502.53;;;9.91;36.98
21826;BME280;11075;47.944;11.776;2023-05-01T13:17:09;94506.88;;;9.46;37.77
21826;BME280;11075;47.944;11.776;2023-05-01T13:19:38;94509.50;;;9.79;38.00
21826;BME280;11075;47.944;11.776;2023-05-01T13:22:05;94514.25;;;10.47;35.64
21826;BME280;11075;47.944;11.776;2023-05-01T13:24:42;94476.94;;;10.09;38.04
21826;BME280;11075;47.944;11.776;2023-05-01T13:27:12;94493.88;;;10.34;36.96
21826;BME280;11075;47.944;11.776;2023-05-01T13:29:39;94492.69;;;9.82;38.11
21826;BME280;11075;47.944;11.776;2023-05-01T13:32:09;94507.56;;;10.16;36.92
21826;BME280;11075;47.944;11.776;2023-05-01T13:34:41;94498.94;;;10.91;35.59
21826;BME280;11075;47.944;11.776;2023-05-01T13:37:11;94491.41;;;10.69;36.69
21826;BME280;11075;47.944;11.776;2023-05-01T13:39:43;94484.44;;;10.68;37.57
21826;BME280;11075;47.944;11.776;2023-05-01T13:42:11;94490.06;;;11.19;37.12
21826;BME280;11075;47.944;11.776;2023-05-01T13:44:42;94465.41;;;9.96;37.71